Aérodrome :
LOGIN :

S'inscrire | Disclaimer

   EN    FR    IT 

 










Légende :    VFR   VFR Marginal   IFR   IFR Intensif   IFR Très Intensif
Visi : 
Plafond : 
>= 8 km
>= 3000ft
5 à 8 km
1000 à 3000 ft
1500m à 5 km
500 à 1000 ft
800 à 1500m
200 à 500 ft
< 800m
< 200 ft
Symboles :   Orages  Brouillard  Fortes neiges  Fortes précipitations  Vent > 20 kt
SIGMETs :   Divers  Orages  Givrage  Turbulence  Onde Orograph.  Cendres Volcan.







- Altitude de l'aérodrome : 187 ft


ETNW - Wunstorf AB

DERNIER METAR :
  • 222120Z 06006KT 9999 SCT100 SCT200 20/06 Q1016 BLU+

METARs EXPIRÉS :
  • 222020Z 06004KT 9999 SCT100 BKN200 19/09 Q1015 BLU+
  • 221920Z 09003KT 9999 SCT110 BKN200 20/09 Q1015 BLU+

TAF TAF ETNW
Valide du 22 à 17h jusqu'au 23 à 17h UTC


221620Z 2217/2317 10006KT 9999 NSW BKN100 BKN260
BECMG 2307/2310 06012KT 9999 NSW SCT150 BKN260 BY ETGL
Pas de NOTAMs connus pour ce terrain.



MET'MAP, la Météo Aéronautique d'un coup d'oeil ! - Copyright ORBIFLY Décembre 2007 - Disclaimer

ORBIFLY MET'MAP TEAM :

Programmation & Développement : Alexandra Zaïnal
Conception & Développement : Baudouin d'Aumeries
Co-Programmation & Développement : Marc-Olivier Méhu
Soutien technique & logistique : Manuel Goepfert

Contact : metmap@orbifly.com




SOURCES & CREDITS :

   NOAA